Time;durP1;ratioP1;P1;durP2;ratioP2;P2;SDS_P1;SDS_P2;PMS_P1;PMS_P2;Temp;Humidity;BMP_temperature;BMP_pressure;BME280_temperature;BME280_humidity;BME280_pressure;Samples;Min_cycle;Max_cycle;Signal;HPM_P1;HPM_P2
2021/07/21 00:09:50;;;;;;;3.73;2.80;;;;;;;15.30;58.51;99642.63;531257;1089;115346;-59
2021/07/21 00:20:07;;;;;;;5.60;3.00;;;;;;;15.31;58.69;99644.31;530498;1089;116736;-64
2021/07/21 00:30:17;;;;;;;3.90;3.50;;;;;;;15.17;58.82;99650.73;531173;1089;116341;-58
2021/07/21 00:51:53;;;;;;;4.80;3.17;;;;;;;14.83;59.76;99667.56;531217;1088;116174;-58
2021/07/21 01:01:59;;;;;;;4.57;3.37;;;;;;;14.69;60.45;99670.42;530612;1089;116306;-58
2021/07/21 01:12:15;;;;;;;5.10;3.40;;;;;;;14.69;60.83;99675.71;531368;1088;116489;-58
2021/07/21 01:22:28;;;;;;;6.20;3.50;;;;;;;14.64;61.31;99673.44;530570;1090;116658;-58
2021/07/21 01:32:35;;;;;;;5.23;3.40;;;;;;;14.52;61.55;99675.27;531374;1089;116272;-57
2021/07/21 01:42:43;;;;;;;6.53;3.67;;;;;;;14.31;62.46;99680.42;531191;1089;117099;-59
2021/07/21 01:52:51;;;;;;;6.97;2.97;;;;;;;14.11;63.05;99679.34;530678;1089;117060;-59
2021/07/21 02:03:00;;;;;;;7.28;3.45;;;;;;;14.12;63.41;99673.95;531259;1089;116332;-59
2021/07/21 02:13:12;;;;;;;4.50;4.10;;;;;;;13.97;64.04;99680.44;531380;1089;116136;-58
2021/07/21 02:23:22;;;;;;;6.78;3.73;;;;;;;13.81;64.33;99684.23;531362;1089;116970;-60
2021/07/21 02:33:32;;;;;;;7.10;4.47;;;;;;;13.62;64.81;99697.13;531306;1089;116492;-58
2021/07/21 02:43:38;;;;;;;6.17;4.13;;;;;;;13.55;65.49;99700.25;530576;1089;116453;-58
2021/07/21 02:53:50;;;;;;;4.07;3.73;;;;;;;13.70;66.11;99702.68;531275;1090;116350;-59
2021/07/21 03:03:58;;;;;;;7.17;4.47;;;;;;;13.78;66.12;99720.56;531268;1090;115956;-58
2021/07/21 03:14:05;;;;;;;6.00;4.53;;;;;;;13.91;66.57;99733.69;530609;1088;117347;-59
2021/07/21 03:24:13;;;;;;;8.60;4.30;;;;;;;14.61;65.97;99738.92;531860;1089;116439;-60
2021/07/21 03:34:22;;;;;;;5.58;4.28;;;;;;;14.64;65.79;99751.89;530656;1090;117026;-59
2021/07/21 03:44:30;;;;;;;7.90;3.60;;;;;;;14.78;65.89;99746.38;531279;1089;116793;-59
2021/07/21 03:54:37;;;;;;;5.23;4.40;;;;;;;15.08;65.52;99754.62;531334;1089;116078;-59
2021/07/21 04:04:46;;;;;;;7.50;4.20;;;;;;;15.42;65.26;99759.81;530431;1090;115918;-60
2021/07/21 04:14:54;;;;;;;6.07;3.93;;;;;;;18.19;64.74;99765.97;531236;1089;116556;-59
2021/07/21 04:25:02;;;;;;;5.38;3.60;;;;;;;24.13;56.23;99771.59;531214;1089;116816;-60
2021/07/21 04:35:11;;;;;;;4.93;4.05;;;;;;;27.24;49.43;99776.92;531217;1089;116258;-59
2021/07/21 04:45:17;;;;;;;10.43;5.33;;;;;;;30.13;43.28;99782.44;531373;1089;116706;-58
2021/07/21 04:55:24;;;;;;;6.08;3.68;;;;;;;32.97;39.14;99779.84;530570;1090;116803;-59
2021/07/21 05:05:30;;;;;;;5.13;3.23;;;;;;;34.49;34.87;99794.80;531336;1090;117028;-59
2021/07/21 05:15:37;;;;;;;6.60;3.63;;;;;;;35.86;32.70;99792.13;531415;1088;115849;-58
2021/07/21 05:25:44;;;;;;;4.20;3.07;;;;;;;35.92;29.83;99789.45;530583;1089;116163;-59
2021/07/21 05:35:51;;;;;;;6.08;3.30;;;;;;;36.04;29.36;99796.34;531377;1089;117136;-58
2021/07/21 05:45:58;;;;;;;4.28;2.95;;;;;;;38.45;27.40;99802.00;531311;1090;116738;-59
2021/07/21 05:56:05;;;;;;;4.50;3.97;;;;;;;39.67;24.27;99808.98;530622;1089;116509;-59
2021/07/21 06:06:12;;;;;;;5.50;3.53;;;;;;;39.80;24.02;99812.98;531294;1089;116284;-59
2021/07/21 06:16:19;;;;;;;5.25;3.60;;;;;;;40.56;22.64;99814.40;530662;1089;115772;-59
2021/07/21 06:26:25;;;;;;;6.10;3.00;;;;;;;41.64;21.43;99825.83;531288;1088;116222;-60
2021/07/21 06:36:32;;;;;;;4.43;3.93;;;;;;;42.17;19.97;99828.49;531363;1089;116644;-61
2021/07/21 06:46:38;;;;;;;4.85;3.48;;;;;;;43.21;20.06;99830.72;530574;1090;116163;-61
2021/07/21 06:56:46;;;;;;;10.20;4.10;;;;;;;43.76;18.97;99842.69;513245;1089;20001610;-61
2021/07/21 07:06:52;;;;;;;3.25;3.03;;;;;;;46.56;17.36;99849.80;531145;1090;117557;-61
2021/07/21 07:16:59;;;;;;;3.55;3.25;;;;;;;46.28;16.64;99850.24;530357;1089;116511;-61
2021/07/21 07:27:07;;;;;;;3.48;3.28;;;;;;;46.22;15.96;99851.59;531170;1089;116808;-61
2021/07/21 07:37:14;;;;;;;3.98;3.70;;;;;;;46.01;15.46;99838.44;530506;1090;116573;-60
2021/07/21 07:47:20;;;;;;;4.08;3.65;;;;;;;45.30;15.72;99849.64;531126;1089;116412;-62
2021/07/21 07:57:26;;;;;;;7.27;3.40;;;;;;;44.63;15.94;99843.39;530980;1090;116949;-61
2021/07/21 08:07:35;;;;;;;5.45;3.80;;;;;;;35.88;19.66;99835.58;530519;1089;117119;-59
2021/07/21 08:17:44;;;;;;;8.20;3.63;;;;;;;30.81;24.64;99846.78;530974;1090;117210;-60
2021/07/21 08:27:51;;;;;;;3.65;3.20;;;;;;;28.76;28.02;99841.27;531182;1090;117843;-59
2021/07/21 08:37:59;;;;;;;8.00;3.73;;;;;;;28.00;29.79;99857.73;530416;1090;115764;-60
2021/07/21 08:48:06;;;;;;;4.20;3.63;;;;;;;26.28;31.91;99860.11;531217;1089;115918;-61
2021/07/21 08:58:14;;;;;;;5.37;3.40;;;;;;;26.97;32.42;99867.61;530402;1089;116196;-60
2021/07/21 09:08:21;;;;;;;4.97;2.93;;;;;;;26.92;32.07;99859.27;531190;1088;116336;-59
2021/07/21 09:18:31;;;;;;;5.23;3.28;;;;;;;25.32;33.43;99869.23;531022;1088;117057;-61
2021/07/21 09:28:39;;;;;;;3.65;3.05;;;;;;;26.13;34.10;99870.08;530426;1088;117316;-60
2021/07/21 09:38:46;;;;;;;9.20;3.83;;;;;;;25.00;34.82;99871.34;531240;1088;116713;-60
2021/07/21 09:48:53;;;;;;;4.00;3.30;;;;;;;24.52;35.44;99869.79;531290;1089;116035;-60
2021/07/21 09:59:25;;;;;;;3.43;3.13;;;;;;;25.52;34.87;99864.14;530594;1089;117400;-60
2021/07/21 10:09:32;;;;;;;5.60;3.10;;;;;;;24.05;36.92;99866.38;531249;1088;116284;-60
2021/07/21 10:19:39;;;;;;;5.45;3.83;;;;;;;23.74;38.27;99867.23;530489;1090;116856;-60
2021/07/21 10:29:46;;;;;;;5.60;3.77;;;;;;;23.91;38.55;99876.84;531254;1090;116317;-60
2021/07/21 10:39:58;;;;;;;4.15;3.30;;;;;;;24.92;37.53;99861.50;531126;1089;115752;-61
2021/07/21 10:50:34;;;;;;;5.17;3.60;;;;;;;25.47;36.91;99863.83;530427;1090;115873;-59
2021/07/21 11:00:43;;;;;;;3.67;2.93;;;;;;;26.17;35.69;99863.30;531193;1088;115409;-60
2021/07/21 11:10:55;;;;;;;4.27;3.13;;;;;;;26.33;35.23;99855.98;530541;1089;117023;-60
2021/07/21 11:21:15;;;;;;;4.63;2.83;;;;;;;24.34;37.39;99873.66;525026;1089;116434;-59
2021/07/21 11:31:57;;;;;;;5.20;3.37;;;;;;;23.35;39.04;99883.20;530455;1090;117556;-58
2021/07/21 11:42:05;;;;;;;3.83;3.40;;;;;;;23.81;39.47;99878.92;531131;1089;116208;-59
2021/07/21 11:52:12;;;;;;;3.50;3.20;;;;;;;24.19;38.80;99862.07;526371;1089;116116;-59
2021/07/21 12:02:24;;;;;;;4.87;3.33;;;;;;;25.02;37.53;99858.55;531174;1089;115730;-59
2021/07/21 12:12:31;;;;;;;6.00;3.43;;;;;;;25.42;36.68;99856.33;531037;1088;116517;-59
2021/07/21 12:22:40;;;;;;;5.87;3.07;;;;;;;25.75;36.10;99849.69;530465;1089;116260;-59
2021/07/21 12:32:47;;;;;;;6.33;4.10;;;;;;;25.45;35.95;99849.75;522331;1089;10001787;-58
2021/07/21 12:42:55;;;;;;;5.80;3.45;;;;;;;25.03;35.29;99858.34;531166;1089;116439;-58
2021/07/21 12:53:05;;;;;;;4.73;2.60;;;;;;;24.79;34.91;99856.80;530445;1090;117086;-58
2021/07/21 13:03:13;;;;;;;4.00;2.90;;;;;;;25.15;35.43;99858.72;531053;1088;116335;-61
2021/07/21 13:13:27;;;;;;;6.30;3.37;;;;;;;25.17;35.58;99861.23;520551;1089;10001687;-59
2021/07/21 13:23:34;;;;;;;5.97;3.60;;;;;;;25.50;35.90;99859.97;531148;1089;116251;-57
2021/07/21 13:33:40;;;;;;;3.30;2.87;;;;;;;25.88;34.94;99860.56;531193;1088;115660;-59
2021/07/21 13:43:56;;;;;;;3.67;2.77;;;;;;;25.72;33.98;99856.27;530486;1088;116069;-62
2021/07/21 13:54:15;;;;;;;4.03;2.40;;;;;;;25.72;33.70;99853.59;524454;1089;116231;-59
2021/07/21 14:04:24;;;;;;;3.00;2.70;;;;;;;25.03;33.80;99852.97;530380;1088;116914;-60
2021/07/21 14:14:30;;;;;;;5.00;2.43;;;;;;;25.23;33.85;99854.27;531152;1089;116290;-58
2021/07/21 14:24:37;;;;;;;2.03;1.73;;;;;;;24.80;32.86;99863.84;531222;1089;116674;-58
2021/07/21 14:34:48;;;;;;;3.90;2.53;;;;;;;24.37;34.92;99855.52;522580;1089;115961;-58
2021/07/21 14:44:57;;;;;;;4.53;2.90;;;;;;;24.04;36.05;99870.89;513972;1090;116443;-57
2021/07/21 14:55:05;;;;;;;7.17;3.43;;;;;;;23.48;37.06;99871.91;505296;1090;10001057;-60
2021/07/21 15:05:12;;;;;;;5.90;2.73;;;;;;;23.33;38.01;99876.34;525812;1090;116919;-60
2021/07/21 15:15:38;;;;;;;2.83;2.60;;;;;;;23.17;38.47;99882.58;531229;1089;116139;-57
2021/07/21 15:25:45;;;;;;;3.80;2.37;;;;;;;23.03;38.84;99884.13;530468;1090;116068;-59
2021/07/21 15:35:51;;;;;;;3.30;3.00;;;;;;;22.97;39.31;99876.80;531119;1088;116858;-57
2021/07/21 15:45:58;;;;;;;3.60;2.60;;;;;;;22.93;39.97;99877.16;528523;1088;115803;-60
2021/07/21 15:56:05;;;;;;;3.30;2.77;;;;;;;22.88;40.28;99870.66;524858;1089;116318;-59
2021/07/21 16:06:14;;;;;;;2.43;2.23;;;;;;;22.71;40.13;99867.19;531228;1089;116515;-59
2021/07/21 16:16:20;;;;;;;3.20;2.90;;;;;;;22.65;40.70;99868.70;530366;1089;116110;-58
2021/07/21 16:26:27;;;;;;;4.97;2.73;;;;;;;22.40;41.38;99874.06;531063;1090;116027;-58
2021/07/21 16:36:34;;;;;;;5.03;2.47;;;;;;;22.18;42.68;99875.57;531139;1090;116372;-58
2021/07/21 16:46:43;;;;;;;2.10;1.87;;;;;;;22.03;43.17;99872.72;530508;1089;116105;-58
2021/07/21 16:56:49;;;;;;;3.60;2.27;;;;;;;21.81;43.61;99883.91;531198;1089;116545;-58
2021/07/21 17:06:56;;;;;;;2.30;2.10;;;;;;;21.63;44.63;99884.01;531348;1089;115994;-58
2021/07/21 17:17:03;;;;;;;4.70;2.47;;;;;;;21.48;45.09;99882.98;530367;1088;116372;-59
2021/07/21 17:27:09;;;;;;;4.13;2.70;;;;;;;21.33;45.87;99888.09;531933;1089;116199;-59
2021/07/21 17:37:18;;;;;;;5.87;3.33;;;;;;;21.03;46.60;99890.30;531217;1089;116880;-58
2021/07/21 17:47:24;;;;;;;8.20;2.70;;;;;;;20.83;47.47;99896.70;531835;1089;116835;-56
2021/07/21 17:57:33;;;;;;;3.03;2.20;;;;;;;20.59;47.29;99897.34;531875;1089;116179;-57
2021/07/21 18:07:37;;;;;;;;;;;;;;;20.31;48.33;99908.16;531062;1089;115926;-57
2021/07/21 18:17:44;;;;;;;4.17;1.93;;;;;;;20.12;48.46;99911.83;532082;1089;102307;-59
2021/07/21 18:27:51;;;;;;;4.20;1.77;;;;;;;19.96;48.55;99905.34;513925;1088;10001757;-59
2021/07/21 18:37:57;;;;;;;4.77;2.93;;;;;;;19.80;49.25;99911.34;530907;1089;116443;-58
2021/07/21 18:48:04;;;;;;;6.05;2.68;;;;;;;19.58;49.35;99920.57;531674;1089;115898;-59
2021/07/21 18:58:11;;;;;;;3.37;3.07;;;;;;;19.44;49.69;99930.73;531053;1089;115883;-59
2021/07/21 19:08:19;;;;;;;3.90;3.50;;;;;;;19.40;49.86;99933.84;531725;1088;115891;-58
2021/07/21 19:18:26;;;;;;;2.97;2.60;;;;;;;19.34;50.49;99947.76;531462;1089;116306;-59
2021/07/21 19:28:34;;;;;;;3.60;2.40;;;;;;;19.30;50.73;99947.20;530361;1090;116275;-60
2021/07/21 19:38:40;;;;;;;5.33;2.97;;;;;;;19.17;51.18;99951.04;531438;1090;116838;-60
2021/07/21 19:48:47;;;;;;;5.03;2.97;;;;;;;19.12;51.27;99957.78;531618;1090;115668;-60
2021/07/21 19:58:54;;;;;;;8.03;3.40;;;;;;;19.02;51.82;99969.28;530599;1090;116650;-61
2021/07/21 20:09:01;;;;;;;3.17;2.63;;;;;;;18.88;52.40;99967.06;531455;1089;116044;-61
2021/07/21 20:19:09;;;;;;;11.60;4.03;;;;;;;18.69;52.98;99965.24;531439;1089;115415;-55
2021/07/21 20:29:16;;;;;;;7.30;3.83;;;;;;;18.55;54.02;99964.70;527456;1089;182407;-60
2021/07/21 20:39:23;;;;;;;3.73;2.83;;;;;;;18.43;54.47;99965.83;530377;1089;116516;-55
2021/07/21 20:49:30;;;;;;;8.17;4.57;;;;;;;18.34;55.28;99975.50;530773;1088;116689;-59
2021/07/21 20:59:37;;;;;;;6.57;3.93;;;;;;;18.25;55.88;99979.84;531217;1090;116449;-60
2021/07/21 21:09:43;;;;;;;4.03;3.40;;;;;;;18.25;56.34;99977.17;531270;1089;117271;-61
2021/07/21 21:19:50;;;;;;;5.83;4.40;;;;;;;18.33;56.18;99971.98;530645;1090;116024;-60
2021/07/21 21:29:56;;;;;;;6.77;4.27;;;;;;;18.27;56.56;99977.88;531286;1090;116056;-60
2021/07/21 21:40:03;;;;;;;5.70;4.73;;;;;;;18.09;56.91;99988.34;531280;1088;115873;-60
2021/07/21 21:50:12;;;;;;;8.17;4.40;;;;;;;17.91;57.63;99990.80;513665;1089;20001018;-58
2021/07/21 22:00:24;;;;;;;6.00;4.10;;;;;;;17.64;58.36;99987.78;530997;1089;116490;-58
2021/07/21 22:10:33;;;;;;;5.60;3.93;;;;;;;17.50;58.76;99996.95;530933;1088;115751;-58
2021/07/21 22:20:40;;;;;;;5.33;4.77;;;;;;;17.56;59.32;100008.02;531595;1090;115943;-59
2021/07/21 22:30:54;;;;;;;7.30;4.60;;;;;;;17.49;59.58;100005.89;529310;1089;116179;-59
2021/07/21 22:41:01;;;;;;;7.83;4.13;;;;;;;17.40;59.38;100008.51;517108;1089;116688;-59
2021/07/21 22:51:11;;;;;;;6.97;4.60;;;;;;;17.31;59.50;100010.12;514661;1089;115813;-58
2021/07/21 23:01:53;;;;;;;6.17;5.00;;;;;;;17.21;59.84;99996.81;514514;1090;117089;-60
2021/07/21 23:12:35;;;;;;;5.57;4.10;;;;;;;17.16;60.68;99996.38;522409;1089;115753;-59
2021/07/21 23:22:43;;;;;;;4.60;4.20;;;;;;;17.25;60.58;100000.05;530560;1089;115867;-60
2021/07/21 23:32:50;;;;;;;5.70;4.00;;;;;;;17.31;60.45;100002.16;531194;1089;116569;-58
2021/07/21 23:42:57;;;;;;;5.40;4.20;;;;;;;17.16;60.68;99996.38;531216;1088;115998;-59
2021/07/21 23:53:05;;;;;;;10.50;4.17;;;;;;;17.04;60.80;99996.45;530512;1089;116100;-59
